Date,TemperatureHighF,TemperatureAvgF,TemperatureLowF,DewpointHighF,DewpointAvgF,DewpointLowF,HumidityHigh,HumidityAvg,HumidityLow,PressureMaxIn,PressureMinIn,WindSpeedMaxMPH,WindSpeedAvgMPH,GustSpeedMaxMPH,PrecipitationSumIn
2014-1-1,1.8,-3.8,-10.7,-6.7,-11.9,-18.4,68,67,66,30.22,30.12,14,7,14,0.00
2014-1-2,0.7,-6.0,-13.0,-8.4,-14.7,-22.1,68,65,61,30.23,30.10,8,4,9,0.00
2014-1-3,29.7,10.7,-13.0,24.6,3.6,-22.1,81,72,62,30.09,29.15,33,13,33,0.00
2014-1-4,33.6,13.5,-4.0,29.1,6.5,-12.2,84,73,66,30.02,29.15,24,6,24,0.00
2014-1-5,-4.0,-10.9,-20.7,-12.0,-19.2,-29.7,68,65,61,30.13,30.01,24,9,24,0.00
2014-1-6,-11.7,-17.5,-22.5,-20.3,-25.9,-31.1,66,63,61,30.08,29.91,21,8,21,0.00
2014-1-7,4.8,-4.2,-13.7,-3.6,-12.3,-21.9,70,67,66,30.01,29.85,11,4,11,0.00
2014-1-8,2.7,-6.3,-12.8,-5.9,-14.5,-21.3,69,66,64,30.20,30.01,8,3,8,0.00
2014-1-9,22.1,10.4,-12.5,14.5,3.2,-20.7,76,72,65,30.14,29.62,26,13,26,0.00
2014-1-10,30.2,25.1,16.2,25.7,20.1,10.0,83,81,76,29.62,29.24,19,8,21,0.00
2014-1-11,32.2,25.5,18.7,26.4,21.1,14.0,86,83,80,29.44,29.23,21,6,21,0.00
2014-1-12,41.2,32.6,18.7,35.6,27.6,14.1,85,82,78,29.37,29.08,19,6,19,0.08
2014-1-13,32.5,27.8,24.1,27.1,21.8,18.1,82,78,75,29.44,29.25,20,6,20,0.01
2014-1-14,28.2,19.0,5.4,22.9,12.7,-1.6,82,76,70,29.90,29.22,30,12,30,0.00
2014-1-15,24.6,12.6,1.0,19.2,6.0,-5.8,80,74,71,29.91,29.15,24,8,24,0.00
2014-1-16,34.0,17.7,4.1,29.7,10.8,-3.4,84,74,65,29.65,29.11,39,14,39,0.01
2014-1-17,12.2,5.1,-2.6,3.3,-2.3,-9.7,73,71,68,29.79,29.47,27,7,27,0.00
2014-1-18,22.1,15.6,10.2,15.1,9.5,3.4,81,76,72,29.70,29.23,25,10,25,0.00
2014-1-19,38.3,29.2,16.5,30.8,23.1,10.9,82,78,73,29.47,29.17,23,7,23,0.05
2014-1-20,29.3,14.6,-6.2,23.6,7.1,-16.4,81,71,60,30.18,29.45,32,12,32,0.02
2014-1-21,6.6,-4.4,-17.1,-1.2,-13.2,-26.1,70,64,60,30.22,29.71,14,5,14,0.00
2014-1-22,8.4,1.0,-11.6,1.6,-7.0,-20.6,74,68,62,30.25,29.69,30,13,30,0.00
2014-1-23,1.4,-10.2,-18.9,-5.7,-18.4,-27.3,71,65,64,30.46,29.88,22,6,22,0.00
2014-1-24,34.5,24.0,1.4,29.9,17.3,-5.7,83,75,70,29.88,29.22,28,11,28,0.01
2014-1-25,26.6,7.2,0.7,17.8,-3.2,-10.2,69,62,58,29.68,29.21,29,11,29,0.00
2014-1-26,18.9,6.5,-9.6,11.5,-0.7,-17.5,77,71,66,29.85,29.11,41,14,41,0.00
2014-1-27,-6.2,-11.9,-16.8,-15.3,-20.4,-25.4,67,64,62,30.15,29.85,26,9,26,0.00
2014-1-28,0.9,-8.4,-17.3,-8.3,-16.9,-26.1,68,65,63,30.10,29.81,15,6,15,0.00
2014-1-29,29.1,10.8,-8.5,20.3,2.5,-16.5,73,68,65,29.82,29.27,21,7,21,0.00
2014-1-30,24.4,13.0,-5.3,16.7,5.5,-13.5,80,71,64,29.79,29.18,30,11,30,0.00
2014-1-31,11.3,-1.1,-12.8,1.9,-9.5,-21.0,70,66,63,29.86,29.71,11,4,11,0.00
2014-2-1,20.1,9.1,-2.4,11.2,0.9,-10.7,74,68,65,29.95,29.62,20,8,20,0.00
2014-2-2,14.2,0.0,-13.4,5.3,-8.4,-21.8,71,66,64,30.01,29.89,11,3,11,0.00
2014-2-3,19.2,5.9,-4.2,9.6,-2.8,-12.2,72,66,62,30.08,29.87,8,3,8,0.00
2014-2-4,7.3,1.1,-4.2,-3.0,-8.4,-13.3,69,63,58,30.19,30.08,21,7,21,0.00
2014-2-5,7.2,-0.4,-7.8,-3.0,-9.6,-16.2,66,64,61,30.25,30.19,19,9,19,0.00
2014-2-6,6.6,-3.7,-12.5,-3.4,-12.2,-20.4,69,66,63,30.20,29.93,16,6,16,0.00
2014-2-7,13.6,1.4,-7.4,3.1,-7.7,-15.6,68,65,61,29.93,29.84,17,6,17,0.00
2014-2-8,19.4,6.8,-5.4,10.4,-2.0,-14.3,70,66,64,29.89,29.79,7,3,7,0.00
2014-2-9,7.0,-1.5,-8.9,-2.9,-10.0,-17.6,70,66,61,30.12,29.89,18,6,18,0.00
2014-2-10,5.2,-5.2,-13.2,-4.7,-14.1,-21.7,68,64,61,30.20,30.12,11,4,11,0.00
2014-2-11,13.5,0.9,-16.4,5.3,-8.0,-25.6,69,65,61,30.17,29.74,29,10,29,0.00
2014-2-12,30.4,20.3,13.5,20.8,12.0,5.4,75,70,64,29.81,29.48,24,5,24,0.00
2014-2-13,28.6,16.0,2.8,23.5,9.2,-4.5,81,74,70,29.48,29.14,32,12,32,0.00
2014-2-14,14.0,5.4,-1.7,5.1,-2.4,-8.3,74,69,65,29.75,29.47,17,6,17,0.00
2014-2-15,25.7,11.0,-3.1,18.0,3.6,-11.8,75,71,66,29.76,29.46,20,7,20,0.00
2014-2-16,22.8,15.4,3.0,14.0,7.6,-3.8,76,70,64,29.94,29.64,30,9,30,0.00
2014-2-17,33.4,24.3,15.4,26.2,17.6,8.4,82,75,71,29.64,29.36,34,10,34,0.00
2014-2-18,40.5,30.8,20.3,32.0,23.3,14.3,80,74,67,29.49,29.24,11,5,11,0.01
2014-2-19,42.4,30.4,15.1,34.6,23.5,8.4,80,75,71,29.53,29.35,26,7,26,0.00
2014-2-20,37.9,30.8,12.7,31.8,25.3,9.2,87,80,74,29.36,29.03,28,9,28,0.07
2014-2-21,16.3,10.8,4.3,11.6,6.5,0.1,86,82,79,29.50,29.07,24,11,24,0.00
2014-2-22,15.4,8.5,1.2,8.7,2.7,-3.9,79,77,73,29.85,29.49,15,6,16,0.00
2014-2-23,17.6,7.4,-2.2,9.9,0.8,-8.1,77,74,70,29.99,29.85,24,6,24,0.00
2014-2-24,14.2,4.4,-5.1,5.3,-2.7,-11.4,75,71,66,30.04,29.97,18,6,18,0.00
2014-2-25,5.7,-2.6,-9.9,-2.6,-10.4,-17.1,74,68,64,30.06,29.96,24,9,24,0.00
2014-2-26,20.7,2.3,-13.0,11.0,-6.2,-20.9,72,67,59,30.05,29.34,36,12,36,0.00
2014-2-27,1.2,-7.3,-15.7,-11.1,-18.4,-26.2,64,57,53,29.90,29.64,24,6,24,0.00
2014-2-28,21.6,6.3,-9.2,11.1,-3.4,-19.5,68,63,58,29.88,29.56,17,8,17,0.00
2014-3-1,4.5,-2.6,-9.0,-4.6,-13.3,-20.0,66,59,53,30.22,29.88,22,11,22,0.00
2014-3-2,5.0,-6.6,-17.1,-7.2,-17.4,-27.6,61,58,55,30.26,30.17,16,5,16,0.00
2014-3-3,17.4,2.4,-14.4,5.2,-8.1,-24.7,65,60,55,30.23,29.91,14,5,14,0.00
2014-3-4,23.0,14.1,7.3,12.3,5.1,-1.8,71,67,61,29.98,29.83,14,6,14,0.00
2014-3-5,29.5,18.5,9.9,18.0,9.1,1.2,72,66,60,30.11,29.98,19,7,19,0.00
2014-3-6,32.4,22.0,10.2,23.4,14.0,0.9,76,71,64,30.00,29.47,34,14,34,0.00
2014-3-7,33.3,28.5,19.2,28.4,21.4,11.4,82,74,69,29.89,29.45,31,10,31,0.00
2014-3-8,30.6,19.5,10.6,19.9,11.1,3.7,76,69,64,30.02,29.84,10,4,10,0.00
2014-3-9,46.4,32.1,13.1,36.5,23.8,4.9,75,71,67,29.84,29.34,17,7,19,0.00
2014-3-10,50.4,41.5,35.1,40.0,33.2,28.0,79,72,65,29.41,29.30,11,3,11,0.00
2014-3-11,44.4,38.9,28.9,34.8,29.0,19.2,74,67,59,29.73,29.39,22,8,22,0.04
2014-3-12,31.1,24.2,16.2,19.2,13.8,7.7,69,64,58,29.83,29.70,22,7,24,0.00
2014-3-13,50.4,37.1,23.2,38.5,28.2,12.7,75,70,64,29.70,29.20,13,6,13,0.00
2014-3-14,43.0,37.0,27.1,35.1,29.0,17.8,79,73,65,29.66,29.20,28,9,28,0.00
2014-3-15,31.6,25.2,20.1,19.2,14.9,7.7,72,65,57,30.09,29.66,16,7,16,0.00
2014-3-16,32.2,21.1,10.2,17.4,9.1,-0.6,65,59,56,30.16,29.66,21,7,21,0.00
2014-3-17,43.0,32.3,25.2,32.4,23.4,15.1,74,69,65,29.66,29.21,26,13,26,0.05
2014-3-18,36.7,31.9,28.2,28.3,24.9,22.5,82,75,70,29.50,29.28,21,10,21,0.02
2014-3-19,41.9,32.3,25.5,32.5,25.0,20.2,83,75,66,29.67,29.49,18,8,18,0.00
2014-3-20,47.3,35.0,22.1,37.5,26.7,14.6,79,72,66,29.68,29.54,13,4,13,0.00
2014-3-21,45.3,34.2,18.7,36.1,26.5,9.9,76,73,68,29.86,29.40,29,11,29,0.00
2014-3-22,21.9,15.2,7.5,10.2,5.7,-0.6,70,65,59,30.18,29.86,27,13,27,0.00
2014-3-23,28.0,18.6,7.2,15.6,7.9,-2.2,69,62,57,30.19,30.00,14,4,14,0.00
2014-3-24,33.6,24.7,16.3,24.0,14.1,6.0,72,63,54,30.03,29.79,27,6,27,0.00
2014-3-25,25.9,18.4,9.7,14.7,6.4,-1.5,70,59,55,29.97,29.80,38,10,38,0.00
2014-3-26,45.3,29.5,13.3,31.0,17.9,1.7,67,61,58,29.82,29.20,38,14,38,0.00
2014-3-27,41.9,37.8,29.3,34.4,31.2,24.5,83,77,64,29.44,29.12,25,9,25,0.52
2014-3-28,37.2,31.3,25.2,28.5,22.8,15.2,81,71,60,29.92,29.44,21,7,21,0.09
2014-3-29,45.5,32.3,18.3,31.2,21.7,9.6,71,65,58,29.95,29.69,21,6,21,0.00
2014-3-30,59.7,46.9,35.2,48.8,37.2,25.8,73,69,62,29.69,29.39,30,9,30,0.00
2014-3-31,59.4,47.7,34.2,50.2,39.3,26.6,79,73,69,29.39,28.99,28,12,28,0.01
2014-4-1,36.5,28.8,20.1,27.8,21.5,13.7,79,74,69,29.78,29.06,37,12,37,0.00
2014-4-2,42.6,31.8,20.1,28.8,21.6,13.2,76,66,55,29.85,29.70,17,7,17,0.00
2014-4-3,36.9,34.3,28.9,30.3,27.4,24.4,85,76,61,29.73,29.45,25,10,25,0.00
2014-4-4,44.1,33.6,25.5,31.5,26.3,21.8,87,75,61,29.72,29.38,40,14,40,0.15
2014-4-5,51.4,37.7,20.7,40.5,29.0,13.1,78,71,65,29.76,29.59,21,7,21,0.00
2014-4-6,61.3,48.0,37.8,49.4,38.6,29.6,75,70,62,29.59,29.46,17,6,17,0.00
2014-4-7,58.6,48.6,39.2,44.5,37.2,31.1,77,65,51,29.50,29.42,24,7,24,0.00
2014-4-8,52.3,42.8,34.3,36.8,30.8,24.6,73,63,50,29.66,29.49,24,9,24,0.00
2014-4-9,71.1,52.0,33.8,53.3,38.4,22.2,67,60,53,29.62,29.15,27,9,27,0.00
2014-4-10,60.8,52.6,41.7,46.4,34.2,25.2,65,51,35,29.59,29.20,26,9,30,0.00
2014-4-11,64.0,51.4,39.7,44.0,34.8,23.4,66,53,44,29.61,29.54,18,4,18,0.00
2014-4-12,59.9,52.3,45.5,47.7,40.8,34.6,76,65,50,29.54,29.34,24,10,24,0.07
2014-4-13,47.3,40.4,33.1,40.1,32.3,22.8,80,73,65,29.60,29.38,36,15,36,0.00
2014-4-14,39.6,30.6,24.8,23.6,16.0,9.6,67,55,41,29.78,29.60,39,18,39,0.00
2014-4-15,41.0,29.2,17.6,22.3,14.0,5.6,62,53,45,29.83,29.67,17,6,17,0.00
2014-4-16,36.5,33.4,29.3,28.4,23.7,17.0,83,68,49,29.68,29.50,30,14,30,0.00
2014-4-17,43.3,34.5,27.5,32.1,26.3,20.1,82,72,62,29.96,29.64,27,9,27,0.01
2014-4-18,54.1,40.5,25.7,39.1,29.2,17.0,75,64,54,30.00,29.79,25,9,25,0.00
2014-4-19,68.5,54.5,44.4,53.6,41.8,31.4,67,62,57,29.79,29.61,37,13,37,0.00
2014-4-20,75.9,61.1,44.6,54.1,46.4,36.8,76,60,40,29.69,29.56,13,4,13,0.01
2014-4-21,69.3,58.7,45.7,50.8,43.3,30.9,71,57,46,29.74,29.50,29,10,29,0.38
2014-4-22,61.7,49.1,38.5,39.3,33.4,27.3,66,55,44,29.80,29.67,21,6,21,0.01
2014-4-23,47.1,44.1,41.9,36.3,32.4,27.6,76,64,50,29.72,29.52,26,12,26,0.40
2014-4-24,49.3,43.8,39.2,42.2,37.8,32.4,82,79,75,29.52,29.30,24,8,24,0.08
2014-4-25,64.2,49.4,35.2,50.6,40.1,29.2,84,71,53,29.56,29.35,23,6,23,0.00
2014-4-26,56.1,46.8,36.9,39.0,34.3,27.3,72,62,49,29.65,29.49,25,10,25,0.01
2014-4-27,48.6,42.3,39.4,40.3,36.2,33.2,85,79,66,29.51,29.22,38,18,38,0.11
2014-4-28,45.0,43.0,41.7,40.4,38.6,36.6,87,84,81,29.31,29.20,31,15,31,0.02
2014-4-29,42.8,38.1,35.2,37.7,33.9,31.0,87,85,79,29.42,29.28,35,18,35,0.01
2014-4-30,45.5,40.3,36.7,40.3,36.4,33.4,89,86,81,29.42,29.39,25,13,25,0.01
2014-5-1,50.0,43.2,37.9,42.9,38.2,34.1,87,83,76,29.48,29.36,26,11,26,0.01
2014-5-2,58.6,49.9,40.6,48.5,41.5,34.6,82,73,61,29.47,29.22,25,7,25,0.00
2014-5-3,58.6,50.6,42.8,43.9,37.6,33.0,72,62,48,29.61,29.36,27,8,27,0.00
2014-5-4,59.5,48.2,36.3,38.9,32.8,25.7,67,56,42,29.76,29.59,19,6,19,0.00
2014-5-5,68.9,58.7,49.6,46.4,39.5,34.4,58,49,40,29.62,29.53,17,6,17,0.00
2014-5-6,68.0,58.3,48.7,44.0,39.6,34.6,59,50,41,29.60,29.38,27,12,27,0.00
2014-5-7,68.2,60.0,52.9,52.1,45.6,38.7,70,59,51,29.41,29.26,22,11,22,0.00
2014-5-8,75.0,58.3,53.8,59.1,51.5,43.7,85,78,59,30.07,29.25,24,8,24,0.07
2014-5-9,59.2,52.2,46.4,55.0,44.8,36.8,86,76,60,30.08,29.76,22,8,22,0.02
2014-5-10,71.4,56.2,39.7,54.5,45.1,32.1,78,67,52,30.15,30.02,26,8,26,0.01
2014-5-11,68.5,60.4,48.7,59.4,51.8,41.5,80,74,65,30.16,30.00,15,5,15,0.04
2014-5-12,61.2,53.8,48.6,55.3,49.5,44.6,88,85,80,30.10,29.93,18,7,18,0.02
2014-5-13,54.5,48.4,43.9,44.6,39.9,33.8,86,73,57,30.45,30.09,24,10,24,0.15
2014-5-14,60.3,49.7,38.5,43.9,36.2,30.3,75,61,43,30.48,30.40,21,7,21,0.00
2014-5-15,49.1,44.5,39.9,34.3,31.9,30.2,71,61,52,30.46,30.37,22,10,22,0.00
2014-5-16,55.6,48.2,41.2,33.5,31.2,29.1,66,53,38,30.38,30.30,17,5,17,0.00
2014-5-17,70.3,55.6,40.3,43.1,34.8,26.4,59,47,32,30.32,30.24,15,5,15,0.00
2014-5-18,77.4,63.4,48.7,49.0,40.6,32.1,56,44,32,30.33,30.20,27,9,27,0.00
2014-5-19,62.4,56.9,54.7,49.9,46.1,40.2,81,68,45,30.25,29.99,27,14,27,0.92
2014-5-20,78.6,63.8,52.3,65.0,55.6,46.5,84,75,60,30.14,29.99,11,3,11,0.19
2014-5-21,66.4,60.6,53.6,56.3,49.0,44.5,75,66,57,30.39,30.10,20,7,20,0.02
2014-5-22,71.8,60.7,48.0,52.6,46.8,40.1,76,61,43,30.46,30.39,14,4,14,0.00
2014-5-23,82.8,67.5,50.5,57.7,49.7,39.7,70,54,39,30.48,30.35,14,4,14,0.00
2014-5-24,82.6,71.0,61.5,63.3,52.9,44.4,74,53,44,30.40,30.26,19,7,19,0.00
2014-5-25,82.4,72.3,59.0,64.0,56.5,44.7,66,58,52,30.30,30.13,23,7,23,0.00
2014-5-26,86.4,74.7,66.4,70.1,63.7,57.3,78,69,55,30.16,30.09,20,5,20,0.56
2014-5-27,74.1,69.1,63.5,65.9,62.5,57.2,84,79,73,30.24,30.12,17,6,17,0.01
2014-5-28,83.5,70.2,56.7,68.2,59.5,50.2,80,70,54,30.32,30.22,15,5,15,0.00
2014-5-29,87.6,74.4,59.2,61.4,55.5,49.0,74,54,35,30.36,30.26,19,5,19,0.00
2014-5-30,91.9,80.7,66.9,70.2,61.2,48.4,60,52,44,30.36,30.23,21,8,21,0.00
2014-5-31,89.1,76.6,70.2,71.2,64.4,59.3,78,67,52,30.29,30.10,21,7,21,0.58
2014-6-1,77.7,70.5,67.3,70.0,64.1,61.5,84,80,74,30.13,29.94,21,7,21,0.18
2014-6-2,80.1,70.6,62.2,68.9,61.8,52.3,87,74,60,30.11,29.91,26,7,26,0.09
2014-6-3,77.7,68.4,57.4,62.4,56.8,49.9,78,67,56,30.22,30.06,11,3,11,0.02
2014-6-4,84.7,73.6,62.2,63.3,58.5,53.7,75,60,45,30.12,30.04,14,3,14,0.01
2014-6-5,79.9,70.9,65.1,63.5,58.7,53.9,71,65,56,30.15,30.05,21,6,21,0.04
2014-6-6,87.1,71.4,60.3,70.0,60.2,52.1,78,68,50,30.19,30.10,15,3,15,0.24
2014-6-7,67.8,60.0,55.6,59.3,53.5,48.8,84,79,73,30.30,30.14,49,9,49,0.20
2014-6-8,74.7,63.7,50.7,57.8,50.3,44.3,82,63,45,30.36,30.27,13,3,13,0.02
2014-6-9,75.6,66.2,59.9,59.4,53.0,48.4,74,63,56,30.30,30.19,10,3,10,0.01
2014-6-10,82.6,70.6,56.8,63.5,56.2,47.3,74,61,47,30.19,30.06,17,4,17,0.00
2014-6-11,87.1,74.7,64.4,65.1,58.7,51.5,68,58,46,30.09,29.85,27,6,27,0.14
2014-6-12,70.9,61.8,57.6,60.4,50.1,44.9,75,66,55,30.21,29.87,26,11,26,0.11
2014-6-13,81.0,67.2,51.4,58.5,50.3,40.8,71,56,40,30.26,30.08,15,4,15,0.34
2014-6-14,70.5,64.3,60.3,59.5,52.7,47.6,79,66,50,30.15,29.87,42,10,42,0.83
2014-6-15,78.6,67.5,59.7,63.2,58.1,54.1,86,73,55,30.04,29.67,27,11,31,0.60
2014-6-16,87.8,71.5,61.7,69.4,59.8,52.2,74,67,53,30.10,29.84,39,10,39,0.44
2014-6-17,87.4,75.5,63.5,71.4,63.8,55.5,77,67,58,30.06,29.89,14,4,14,0.00
2014-6-18,86.5,78.3,71.1,73.2,67.6,64.2,82,70,57,30.11,29.98,27,9,27,0.05
2014-6-19,78.8,72.2,67.5,70.5,65.6,62.0,85,80,68,30.22,30.04,37,14,37,3.56
2014-6-20,88.2,76.8,68.0,72.0,67.0,62.7,86,73,53,30.17,30.02,17,5,17,0.00
2014-6-21,88.7,78.8,68.9,68.4,64.3,59.7,76,62,47,30.13,30.03,12,4,12,0.02
2014-6-22,85.5,76.1,70.2,70.5,64.1,58.6,72,66,59,30.11,29.99,11,3,11,0.06
2014-6-23,82.6,75.7,66.9,66.3,62.9,57.7,79,65,53,30.09,30.01,14,4,14,0.01
2014-6-24,84.6,76.5,66.2,65.5,61.5,55.9,71,60,49,30.15,30.08,13,4,13,0.00
2014-6-25,74.8,66.8,60.4,62.1,57.6,53.5,79,72,64,30.27,30.16,15,6,15,0.00
2014-6-26,87.3,73.2,60.3,72.7,63.8,53.9,82,73,61,30.25,30.05,27,7,27,0.14
2014-6-27,84.7,76.7,70.9,73.6,68.2,64.2,83,75,66,30.08,29.93,25,11,25,0.07
2014-6-28,85.6,76.5,70.1,75.3,69.1,62.0,83,78,65,29.98,29.83,34,12,34,0.57
2014-6-29,86.7,74.6,62.6,66.7,61.4,54.8,84,66,41,29.93,29.86,32,8,32,0.01
2014-6-30,79.7,72.5,65.5,62.6,57.0,52.2,69,59,45,29.89,29.72,26,7,26,0.00
2014-7-1,73.3,65.3,56.8,60.5,54.4,49.4,77,68,58,30.04,29.73,22,8,22,0.06
2014-7-2,73.3,63.6,54.1,52.7,49.6,46.7,79,62,44,30.29,30.04,26,9,26,0.00
2014-7-3,78.9,68.4,57.7,55.2,50.9,45.4,67,54,41,30.39,30.29,10,2,10,0.00
2014-7-4,64.0,59.6,57.0,48.4,46.3,44.3,63,61,57,30.43,30.39,3,1,4,0.00
2014-7-5,89.3,80.5,67.9,71.1,66.5,57.4,70,63,55,30.29,30.04,23,11,23,0.00
2014-7-6,87.5,81.9,73.3,76.4,68.2,59.2,83,64,53,30.04,29.88,24,9,24,0.07
2014-7-7,85.4,72.2,66.5,67.4,60.9,55.5,75,68,55,29.98,29.82,27,3,27,0.46
2014-7-8,75.8,69.2,62.3,59.6,56.1,51.2,78,64,49,30.10,29.85,26,9,26,0.00
2014-7-9,82.1,71.2,58.7,63.2,55.8,48.1,70,59,45,30.19,30.10,12,2,12,0.00
2014-7-10,87.9,78.8,63.2,69.0,62.6,50.7,69,58,48,30.22,30.12,21,9,21,0.00
2014-7-11,84.5,75.5,68.1,74.2,65.9,59.1,82,72,59,30.18,30.08,27,8,27,2.48
2014-7-12,77.6,72.8,68.4,68.8,65.2,60.8,82,77,71,30.19,30.10,14,3,14,0.59
2014-7-13,78.7,70.4,62.2,61.2,57.0,47.4,81,64,45,30.17,30.06,20,5,20,0.00
2014-7-14,64.6,61.2,56.3,51.3,48.6,46.1,71,63,56,30.24,30.06,28,10,28,0.00
2014-7-15,72.5,63.5,53.8,53.9,50.3,46.0,77,63,52,30.27,30.18,21,7,21,0.00
2014-7-16,77.9,67.3,54.8,58.4,52.5,43.7,72,60,48,30.25,30.16,10,2,10,0.00
2014-7-17,81.1,69.9,56.8,62.2,54.7,45.2,69,59,48,30.21,30.14,15,4,15,0.00
2014-7-18,80.4,71.5,60.6,64.3,57.0,48.6,70,61,52,30.19,30.09,27,8,27,0.00
2014-7-19,79.1,72.5,66.0,65.9,60.9,55.5,74,67,61,30.11,30.03,21,8,21,0.00
2014-7-20,88.0,78.4,69.4,71.6,65.9,59.8,74,66,55,30.04,29.96,24,9,24,0.00
2014-7-21,94.4,82.4,72.8,79.3,70.9,63.0,75,68,61,30.06,29.93,22,9,22,0.00
2014-7-22,82.9,77.2,68.9,73.3,64.2,54.2,78,65,47,30.33,29.94,27,8,27,0.00
2014-7-23,84.5,72.1,61.1,61.0,55.4,49.1,68,56,42,30.42,30.30,14,4,14,0.00
2014-7-24,83.8,71.8,59.3,64.7,57.0,46.3,67,60,52,30.32,29.99,31,5,31,0.00
2014-7-25,84.4,74.4,65.3,71.8,64.1,55.3,78,70,64,30.06,29.90,24,8,24,0.56
2014-7-26,84.9,77.2,69.4,71.6,65.7,57.3,79,68,51,30.00,29.92,16,4,16,0.00
2014-7-27,76.6,68.7,63.5,62.4,56.9,52.9,72,66,58,30.28,29.95,27,9,27,0.01
2014-7-28,76.4,68.2,62.4,61.0,56.1,52.0,78,66,53,30.36,30.27,14,4,14,0.00
2014-7-29,78.4,69.1,58.1,60.6,54.8,47.8,73,61,51,30.30,30.19,15,4,15,0.00
2014-7-30,80.4,70.4,59.5,62.8,55.5,47.8,71,60,49,30.25,30.17,16,3,16,0.00
2014-7-31,83.1,71.9,58.3,64.0,56.8,48.1,72,60,48,30.20,30.12,13,2,13,0.00
2014-8-1,86.9,74.3,61.3,66.8,59.5,50.9,72,61,49,30.22,30.16,10,2,10,0.00
2014-8-2,85.1,75.0,63.5,69.3,61.2,52.9,72,62,53,30.26,30.20,11,2,11,0.00
2014-8-3,87.1,76.1,63.8,70.5,62.5,53.5,74,63,52,30.26,30.16,10,2,10,0.00
2014-8-4,78.6,72.2,66.4,67.2,60.9,53.6,78,68,56,30.23,30.17,16,5,16,0.00
2014-8-5,79.5,70.5,60.1,63.8,58.1,51.9,77,65,54,30.26,30.19,16,4,16,0.00
2014-8-6,84.7,72.9,60.1,66.7,59.4,50.4,76,63,52,30.23,30.15,14,3,14,0.00
2014-8-7,85.1,74.2,62.8,66.4,59.6,52.2,74,61,49,30.22,30.13,17,5,17,0.00
2014-8-8,84.4,76.2,68.0,66.3,60.7,55.8,68,59,51,30.23,30.16,17,5,17,0.00
2014-8-9,83.5,72.5,68.3,66.8,61.0,56.3,80,68,51,30.24,30.16,20,6,20,0.00
2014-8-10,82.2,72.7,67.3,70.8,64.8,61.1,83,77,66,30.19,30.08,17,5,17,0.61
2014-8-11,74.8,68.8,63.5,63.4,58.5,50.8,85,71,53,30.19,30.06,26,10,26,0.01
2014-8-12,78.1,67.7,57.4,58.2,53.2,47.6,76,60,48,30.22,30.13,21,5,21,0.00
2014-8-13,82.6,71.9,61.0,65.5,57.4,48.1,69,60,52,30.21,30.15,11,3,11,0.00
2014-8-14,82.2,71.6,61.5,64.5,56.7,49.1,65,60,53,30.25,30.09,17,6,17,0.00
2014-8-15,85.3,75.3,66.2,70.8,62.7,54.3,73,65,59,30.11,29.97,14,5,14,0.00
2014-8-16,84.5,74.5,66.5,73.5,65.0,57.6,78,72,67,30.02,29.95,9,3,9,0.00
2014-8-17,83.5,74.1,70.9,75.6,66.4,62.7,80,77,72,30.07,29.94,15,5,15,0.69
2014-8-18,85.3,74.2,68.3,71.9,65.4,59.8,85,74,60,29.95,29.76,20,3,20,0.14
2014-8-19,80.9,71.8,64.2,68.8,62.4,56.9,83,73,63,29.89,29.78,15,4,15,0.01
2014-8-20,85.1,74.2,64.2,72.3,64.3,55.8,80,71,62,29.98,29.89,15,5,15,0.00
2014-8-21,85.3,76.5,70.7,77.0,68.9,63.5,82,77,72,29.97,29.83,20,6,20,0.02
2014-8-22,80.4,73.9,70.7,71.6,67.2,63.1,85,80,73,30.12,29.96,11,3,11,0.00
2014-8-23,77.5,71.5,67.3,71.5,65.9,61.8,87,83,77,30.11,29.97,17,7,17,0.00
2014-8-24,86.7,77.5,70.9,77.3,70.6,63.5,86,79,71,29.98,29.87,21,8,21,0.00
2014-8-25,75.4,69.5,63.3,63.5,58.0,51.8,80,67,56,30.19,29.94,15,4,15,0.00
2014-8-26,75.0,63.8,53.2,59.2,51.9,44.8,74,66,56,30.33,30.17,15,4,15,0.00
2014-8-27,76.3,67.6,59.3,62.3,56.2,50.3,77,67,59,30.33,30.19,11,4,11,0.01
2014-8-28,71.9,65.8,62.2,62.7,57.0,52.3,81,73,66,30.22,29.96,20,6,20,0.00
2014-8-29,76.1,70.0,66.4,70.9,64.8,60.4,86,84,80,29.96,29.81,15,4,15,0.48
2014-8-30,75.5,69.6,65.1,68.3,63.8,58.4,89,82,76,29.95,29.85,12,3,12,0.39
2014-8-31,81.3,70.4,61.9,71.5,63.3,56.3,87,78,70,29.98,29.69,24,9,24,0.46
2014-9-1,75.0,68.5,63.5,62.7,59.5,53.5,85,74,59,29.90,29.71,15,4,15,0.06
2014-9-2,77.9,68.5,58.8,61.1,56.4,50.5,78,66,55,29.99,29.89,15,4,15,0.00
2014-9-3,79.7,68.0,59.9,71.9,59.8,49.8,81,75,66,29.97,29.73,21,6,21,0.41
2014-9-4,83.8,74.6,64.4,75.9,68.0,54.4,87,80,70,30.00,29.67,21,6,21,0.01
2014-9-5,64.9,59.6,53.8,54.8,49.7,42.7,78,70,61,30.27,30.00,17,5,17,0.00
2014-9-6,74.1,61.5,49.4,60.1,50.0,41.0,77,66,53,30.28,30.20,11,3,11,0.00
2014-9-7,75.4,63.7,52.7,59.7,50.7,42.4,74,63,52,30.23,30.07,17,7,22,0.00
2014-9-8,75.0,65.5,57.7,61.9,54.0,45.6,73,66,61,30.07,29.88,29,10,29,0.00
2014-9-9,76.3,67.4,60.1,68.2,59.2,51.2,80,75,67,29.93,29.78,14,5,14,0.45
2014-9-10,67.4,52.2,46.0,60.9,46.8,39.6,86,82,78,30.21,29.75,33,14,35,0.11
2014-9-11,55.6,48.7,41.7,44.9,39.7,35.7,81,71,61,30.45,30.20,17,5,17,0.00
2014-9-12,52.9,47.4,41.9,41.8,36.9,31.0,77,67,55,30.51,30.42,17,4,17,0.00
2014-9-13,60.2,48.5,34.9,45.4,36.6,25.4,76,64,53,30.43,30.19,21,6,21,0.00
2014-9-14,64.0,54.3,46.2,46.5,41.4,36.8,73,62,49,30.22,30.15,16,5,17,0.00
2014-9-15,60.2,53.8,45.5,45.8,40.9,32.8,73,62,51,30.29,30.20,17,3,17,0.15
2014-9-16,70.2,55.0,39.4,53.1,42.1,28.4,73,62,55,30.28,30.05,14,3,14,0.00
2014-9-17,76.5,65.3,57.0,61.9,52.5,45.3,70,63,58,30.08,29.98,9,3,9,0.00
2014-9-18,76.1,62.8,50.5,63.5,53.3,44.6,83,72,59,30.14,30.01,16,7,17,0.00
2014-9-19,77.7,67.6,58.8,68.4,59.1,50.0,79,74,67,30.03,29.68,25,8,25,0.00
2014-9-20,76.5,66.7,58.3,63.7,58.4,50.4,83,75,59,29.93,29.72,30,6,30,0.33
2014-9-21,67.1,58.8,52.2,53.5,49.9,45.5,83,73,62,30.29,29.92,21,8,21,0.00
2014-9-22,72.9,59.5,46.9,59.2,49.3,38.4,81,69,60,30.33,30.19,11,2,11,0.00
2014-9-23,76.3,62.5,50.9,61.7,51.1,41.6,77,67,57,30.26,30.15,21,7,21,0.07
2014-9-24,67.5,63.0,58.5,58.6,54.7,50.6,77,74,68,30.21,30.14,22,9,22,0.07
2014-9-25,79.0,68.6,59.7,69.0,60.4,52.9,82,75,67,30.24,30.16,17,6,17,0.00
2014-9-26,81.7,69.8,59.9,68.2,59.0,51.4,79,69,59,30.22,30.11,21,7,21,0.00
2014-9-27,82.0,71.9,63.7,67.9,59.8,54.5,76,66,57,30.19,30.10,20,7,20,0.00
2014-9-28,81.9,71.0,60.6,67.6,58.5,50.0,75,65,57,30.18,30.06,14,4,14,0.00
2014-9-29,67.8,57.6,46.6,57.7,49.7,39.9,81,75,63,30.19,30.06,20,9,20,0.02
2014-9-30,61.5,51.1,43.3,51.2,43.9,37.8,82,76,69,30.14,29.84,28,10,28,0.00
2014-10-1,61.2,56.7,52.5,55.3,50.4,45.2,83,79,74,29.89,29.79,18,7,18,0.02
2014-10-2,60.6,56.5,50.0,56.1,51.9,45.2,85,84,83,29.90,29.78,14,3,14,0.31
2014-10-3,50.5,45.0,40.5,46.2,35.6,27.9,85,70,55,29.90,29.77,36,14,36,0.01
2014-10-4,50.4,42.6,37.2,36.0,31.1,25.2,75,64,54,29.86,29.74,35,9,35,0.00
2014-10-5,50.9,42.7,34.9,38.5,31.6,24.0,71,65,61,29.74,29.59,16,4,16,0.00
2014-10-6,61.5,48.3,35.1,46.8,37.2,27.3,77,66,54,29.60,29.46,19,6,19,0.00
2014-10-7,59.5,52.1,46.8,44.0,38.9,32.8,74,61,49,29.92,29.52,27,6,27,0.00
2014-10-8,58.5,48.1,40.3,40.1,33.2,27.3,71,57,42,30.15,29.92,22,5,22,0.00
2014-10-9,53.8,43.2,33.1,36.7,28.7,19.5,66,57,50,30.27,30.14,14,3,14,0.00
2014-10-10,53.8,42.9,31.8,37.7,29.5,19.8,73,59,52,30.33,30.24,17,3,17,0.00
2014-10-11,57.6,43.5,30.7,42.2,30.2,19.3,71,59,52,30.28,30.00,16,4,16,0.00
2014-10-12,64.4,50.3,39.0,46.4,37.3,28.4,73,61,50,30.00,29.76,30,10,30,0.00
2014-10-13,55.2,53.1,50.5,49.3,46.0,43.2,85,77,69,29.85,29.79,24,7,24,0.04
2014-10-14,63.9,53.3,46.4,48.8,43.6,36.1,88,71,51,30.02,29.83,30,10,30,0.01
2014-10-15,65.1,49.8,36.7,48.3,37.3,26.0,74,62,54,30.06,29.88,11,2,11,0.00
2014-10-16,70.0,54.7,39.6,52.8,41.3,28.0,72,61,49,29.88,29.59,24,7,24,0.00
2014-10-17,59.0,52.3,45.3,47.8,43.3,37.5,76,71,66,30.10,29.63,27,9,27,0.00
2014-10-18,54.7,47.3,38.8,42.9,38.3,28.8,77,71,65,30.26,30.10,14,4,14,0.00
2014-10-19,69.8,53.6,38.7,53.2,42.7,29.0,77,67,54,30.11,29.80,21,7,21,0.00
2014-10-20,65.1,53.0,43.7,47.6,40.6,33.8,75,63,51,30.11,29.91,17,4,17,0.00
2014-10-21,62.4,48.6,36.3,49.7,37.5,25.7,74,65,60,30.19,30.10,21,8,21,0.00
2014-10-22,63.7,51.7,41.9,49.2,41.4,34.1,76,68,60,30.19,30.00,30,13,30,0.00
2014-10-23,66.7,57.5,48.4,57.1,48.0,37.0,80,71,62,30.03,29.95,14,4,14,0.05
2014-10-24,69.1,57.1,47.3,58.4,47.2,36.3,76,69,65,29.98,29.82,13,5,13,0.00
2014-10-25,63.1,54.4,42.4,45.7,36.7,23.8,66,52,35,30.10,29.93,21,5,21,0.01
2014-10-26,64.2,49.2,34.0,39.8,29.9,18.6,61,48,38,30.07,29.62,23,7,24,0.00
2014-10-27,67.6,52.2,43.3,47.2,37.5,27.8,74,58,46,29.74,29.56,20,4,20,0.00
2014-10-28,47.3,42.4,39.4,39.4,34.8,31.5,78,74,67,30.00,29.73,19,8,19,0.00
2014-10-29,46.2,39.8,35.8,37.0,31.3,27.8,75,72,67,30.18,30.00,17,4,17,0.00
2014-10-30,48.9,41.8,32.2,39.4,32.4,17.4,76,69,53,30.40,30.02,34,8,34,0.02
2014-10-31,39.2,31.1,24.6,23.7,18.3,11.9,70,59,51,30.57,30.40,21,6,21,0.00
2014-11-1,46.2,33.0,23.0,29.6,19.9,11.0,67,58,51,30.48,30.14,24,10,24,0.00
2014-11-2,58.3,45.2,35.2,38.2,30.1,21.6,60,55,50,30.15,29.85,25,12,25,0.00
2014-11-3,57.2,49.2,44.1,46.6,38.5,30.2,72,66,57,29.86,29.74,19,7,19,0.00
2014-11-4,51.3,43.0,33.3,37.9,32.0,22.4,74,65,57,30.02,29.86,20,8,24,0.00
2014-11-5,47.5,39.4,31.8,37.3,31.0,21.3,83,72,64,30.05,29.85,21,6,21,0.00
2014-11-6,41.5,37.0,31.8,33.7,30.5,24.7,83,77,70,30.30,30.05,21,6,21,0.00
2014-11-7,49.3,39.9,32.0,42.2,32.4,24.4,78,74,71,30.19,29.66,34,11,34,0.00
2014-11-8,41.2,38.0,33.3,33.4,27.1,23.5,75,65,57,30.07,29.78,27,9,27,0.00
2014-11-9,39.4,36.4,31.5,30.4,24.1,15.7,72,61,53,29.81,29.72,18,5,18,0.00
2014-11-10,31.6,27.2,23.9,24.0,20.9,16.3,82,77,53,29.94,29.60,36,16,36,0.00
2014-11-11,27.7,23.4,16.7,19.5,16.5,9.0,82,75,68,30.26,29.92,30,12,30,0.00
2014-11-12,27.5,20.7,14.0,19.0,13.7,7.2,78,74,70,30.32,30.25,13,5,13,0.00
2014-11-13,25.0,20.3,16.0,17.4,13.2,8.8,77,73,68,30.39,30.32,18,8,19,0.00
2014-11-14,21.6,13.5,5.2,13.5,5.8,-3.3,75,71,67,30.38,30.30,8,3,11,0.00
2014-11-15,28.8,17.2,2.5,21.4,9.8,-5.5,75,72,67,30.31,30.07,10,3,10,0.00
2014-11-16,22.8,13.2,4.3,15.8,6.1,-2.8,75,72,68,30.07,29.83,19,6,19,0.00
2014-11-17,16.2,10.1,4.5,7.1,2.6,-2.2,76,71,65,30.01,29.89,24,8,24,0.00
2014-11-18,21.0,14.1,5.5,12.2,6.4,-1.7,76,71,66,30.02,29.71,17,6,17,0.00
2014-11-19,27.1,20.6,14.4,16.6,12.8,6.7,77,71,63,29.97,29.68,24,10,24,0.00
2014-11-20,18.0,10.6,2.7,8.2,2.3,-6.0,73,69,65,30.22,29.96,13,4,13,0.00
2014-11-21,31.8,19.6,1.9,25.2,11.9,-7.0,78,71,66,30.25,29.82,28,10,28,0.00
2014-11-22,41.4,35.3,31.3,37.8,30.6,25.2,87,83,78,29.82,29.45,22,8,22,0.15
2014-11-23,45.5,41.1,31.5,41.6,36.9,25.7,87,85,79,29.45,29.35,23,6,23,0.04
2014-11-24,31.5,19.8,12.2,25.5,13.9,5.8,81,78,75,29.91,29.33,27,12,27,0.00
2014-11-25,25.7,18.4,9.1,19.2,12.2,3.2,79,76,73,30.04,29.92,16,5,16,0.00
2014-11-26,27.7,22.7,8.1,21.7,15.8,-2.2,81,74,62,30.40,29.96,20,9,20,0.00
2014-11-27,11.8,4.3,-4.5,3.4,-4.1,-12.6,71,67,63,30.50,30.20,14,5,16,0.00
2014-11-28,26.2,18.1,6.6,18.3,11.0,-1.3,76,73,69,30.19,29.62,18,8,18,0.00
2014-11-29,37.0,27.6,20.3,30.8,21.6,13.5,81,78,75,29.69,29.37,21,6,21,0.01
2014-11-30,20.1,10.5,2.8,13.5,2.0,-5.5,75,68,63,30.45,29.69,24,10,24,0.00
2014-12-1,7.5,1.5,-4.4,-2.3,-8.1,-13.6,68,63,60,30.72,30.32,24,6,24,0.00
2014-12-2,23.9,16.2,2.5,14.9,7.6,-6.5,71,68,65,30.32,29.90,26,9,26,0.00
2014-12-3,23.0,15.4,10.0,12.5,7.2,1.2,74,69,65,30.28,29.97,16,5,16,0.00
2014-12-4,31.6,24.4,13.8,21.3,15.3,5.9,72,68,62,30.28,30.03,25,9,25,0.00
2014-12-5,34.9,30.0,19.9,28.2,23.4,13.9,80,76,70,30.38,30.03,12,4,12,0.00
2014-12-6,30.9,22.4,15.6,24.2,16.2,9.8,80,77,73,30.62,30.38,11,4,11,0.00
2014-12-7,35.1,30.2,23.5,29.7,24.7,17.0,84,79,76,30.48,29.96,27,12,27,0.00
2014-12-8,35.1,28.4,20.1,31.0,23.1,13.8,85,80,75,30.31,29.93,21,9,25,0.01
2014-12-9,24.6,20.0,14.4,19.0,14.4,8.4,81,78,76,30.44,30.31,13,5,13,0.00
2014-12-10,30.9,26.6,21.0,26.5,22.3,16.3,85,83,81,30.36,30.21,17,7,17,0.00
2014-12-11,33.4,30.8,28.4,29.5,26.7,24.0,86,84,83,30.22,30.12,14,6,14,0.00
2014-12-12,37.6,35.1,33.4,34.1,31.4,29.7,87,86,85,30.16,30.01,14,7,15,0.00
2014-12-13,46.8,41.3,34.5,43.7,38.2,31.1,90,88,87,30.01,29.85,12,6,14,0.00
2014-12-14,52.3,48.9,46.8,48.4,46.1,43.7,91,90,89,29.87,29.73,15,8,15,0.00
2014-12-15,50.7,38.8,25.7,48.0,36.2,22.7,91,90,88,29.86,29.63,29,9,29,0.27
2014-12-16,25.9,19.4,11.8,22.8,15.0,6.8,88,82,79,30.24,29.86,30,11,32,0.00
2014-12-17,20.7,13.9,8.4,14.9,8.7,3.3,82,79,77,30.29,30.22,10,4,10,0.01
2014-12-18,25.2,17.0,9.1,19.9,11.8,3.8,82,79,78,30.28,30.19,11,2,11,0.00
2014-12-19,31.6,26.9,20.8,27.1,22.2,15.7,84,82,80,30.22,30.08,16,8,16,0.00
2014-12-20,33.3,30.9,30.0,28.3,27.0,25.8,86,85,84,30.09,29.98,19,8,19,0.00
2014-12-21,37.4,34.8,31.5,34.7,31.5,27.5,90,88,85,29.99,29.63,21,10,21,0.01
2014-12-22,38.3,36.8,35.1,35.6,34.2,31.7,91,90,90,29.63,29.51,22,11,22,0.14
2014-12-23,36.1,35.0,34.2,33.3,32.0,31.3,90,89,87,29.82,29.56,23,11,23,0.01
2014-12-24,35.6,33.8,31.5,32.1,30.3,27.8,88,87,86,29.82,29.53,19,6,19,0.00
2014-12-25,35.1,32.1,29.8,31.6,28.7,26.2,88,87,86,29.81,29.52,18,5,18,0.01
2014-12-26,32.7,30.3,26.1,29.8,26.7,22.3,89,86,83,30.04,29.79,21,10,21,0.00
2014-12-27,26.1,19.4,9.3,22.3,14.6,3.4,86,81,75,30.07,29.96,22,8,22,0.00
2014-12-28,25.7,13.5,5.0,19.9,7.7,-0.8,82,77,74,30.34,30.02,11,3,11,0.00
2014-12-29,10.4,4.2,-2.7,3.8,-3.0,-10.2,74,71,67,30.65,30.34,14,6,14,0.00
2014-12-30,4.5,-2.9,-8.0,-3.4,-10.5,-15.8,72,69,67,30.73,30.53,11,5,11,0.00
2014-12-31,12.7,2.6,-8.7,4.6,-4.8,-16.2,74,70,68,30.52,29.89,27,9,27,0.00
2015-1-1,31.1,20.6,10.0,24.0,13.8,3.0,78,75,69,30.12,29.77,16,6,16,0.00
2015-1-2,29.1,18.6,5.0,21.6,11.4,-2.7,76,73,69,30.15,29.89,17,6,17,0.00